Terminal Aerodrome Forecast
Issued by NWS Jackson, MS

Home | Current Version | Previous Version | Text Only | Print | Product List | Glossary On
Versions: 1 2 3 4 5 6 7 8 9 10 11 12 13 14 15 16 17 18 19
000
FTUS44 KJAN 240555
TAFMEI
TAF
KMEI 240555Z 2406/2506 VRB03KT P6SM SKC
     FM241000 00000KT 5SM BR SKC
      TEMPO 2411/2413 3SM BR
     FM241500 17005KT P6SM FEW035
     FM241800 20005KT P6SM VCTS SCT035CB
      TEMPO 2422/2424 3SM TSRA BKN025CB
     FM250200 18005KT P6SM FEW050=

USA.gov is the U.S. government's official web portal to all federal, state and local government web resources and services.